sensor_id;sensor_type;location;lat;lon;timestamp;P1;durP1;ratioP1;P2;durP2;ratioP2
9324;SDS011;4701;51.566;6.776;2023-04-25T07:03:39;9.83;;;3.73;;
9324;SDS011;4701;51.566;6.776;2023-04-25T07:06:48;10.90;;;4.13;;
9324;SDS011;4701;51.566;6.776;2023-04-25T07:09:53;8.63;;;4.17;;
9324;SDS011;4701;51.566;6.776;2023-04-25T07:12:55;8.10;;;4.00;;
9324;SDS011;4701;51.566;6.776;2023-04-25T07:15:57;10.43;;;3.80;;
9324;SDS011;4701;51.566;6.776;2023-04-25T07:19:02;10.20;;;3.40;;
9324;SDS011;4701;51.566;6.776;2023-04-25T07:22:05;9.40;;;3.83;;
9324;SDS011;4701;51.566;6.776;2023-04-25T07:25:09;9.97;;;3.70;;
9324;SDS011;4701;51.566;6.776;2023-04-25T07:28:11;13.17;;;4.20;;
9324;SDS011;4701;51.566;6.776;2023-04-25T07:31:13;11.23;;;3.63;;
9324;SDS011;4701;51.566;6.776;2023-04-25T07:34:18;14.90;;;4.27;;
9324;SDS011;4701;51.566;6.776;2023-04-25T07:37:20;8.47;;;3.20;;
9324;SDS011;4701;51.566;6.776;2023-04-25T07:40:51;7.57;;;3.60;;
9324;SDS011;4701;51.566;6.776;2023-04-25T07:43:52;6.60;;;3.23;;
9324;SDS011;4701;51.566;6.776;2023-04-25T07:46:55;9.53;;;3.67;;
9324;SDS011;4701;51.566;6.776;2023-04-25T07:49:59;9.77;;;3.17;;
9324;SDS011;4701;51.566;6.776;2023-04-25T07:53:01;8.80;;;2.80;;
9324;SDS011;4701;51.566;6.776;2023-04-25T07:56:10;9.40;;;3.03;;
9324;SDS011;4701;51.566;6.776;2023-04-25T07:59:14;8.90;;;3.10;;
9324;SDS011;4701;51.566;6.776;2023-04-25T08:02:16;15.80;;;2.83;;
9324;SDS011;4701;51.566;6.776;2023-04-25T08:05:20;9.50;;;2.80;;
9324;SDS011;4701;51.566;6.776;2023-04-25T08:08:28;9.97;;;2.60;;
9324;SDS011;4701;51.566;6.776;2023-04-25T08:11:29;6.93;;;2.93;;
9324;SDS011;4701;51.566;6.776;2023-04-25T08:14:32;9.27;;;3.00;;
9324;SDS011;4701;51.566;6.776;2023-04-25T08:17:37;9.30;;;3.10;;
9324;SDS011;4701;51.566;6.776;2023-04-25T08:20:41;9.30;;;2.23;;
9324;SDS011;4701;51.566;6.776;2023-04-25T08:23:45;8.20;;;2.73;;
9324;SDS011;4701;51.566;6.776;2023-04-25T08:26:58;9.53;;;2.57;;
9324;SDS011;4701;51.566;6.776;2023-04-25T08:30:03;12.07;;;2.90;;
9324;SDS011;4701;51.566;6.776;2023-04-25T08:33:06;8.10;;;2.20;;
9324;SDS011;4701;51.566;6.776;2023-04-25T08:36:29;8.63;;;2.70;;
9324;SDS011;4701;51.566;6.776;2023-04-25T08:39:32;12.47;;;2.40;;
9324;SDS011;4701;51.566;6.776;2023-04-25T08:42:53;8.63;;;2.47;;
9324;SDS011;4701;51.566;6.776;2023-04-25T08:45:57;8.63;;;2.63;;
9324;SDS011;4701;51.566;6.776;2023-04-25T08:49:10;8.93;;;2.87;;
9324;SDS011;4701;51.566;6.776;2023-04-25T08:52:15;5.80;;;2.10;;
9324;SDS011;4701;51.566;6.776;2023-04-25T08:55:23;9.23;;;2.30;;
9324;SDS011;4701;51.566;6.776;2023-04-25T08:58:31;8.33;;;2.77;;
9324;SDS011;4701;51.566;6.776;2023-04-25T09:01:33;6.83;;;2.00;;
9324;SDS011;4701;51.566;6.776;2023-04-25T09:04:35;7.80;;;2.13;;
9324;SDS011;4701;51.566;6.776;2023-04-25T09:07:39;7.10;;;2.00;;
9324;SDS011;4701;51.566;6.776;2023-04-25T09:10:41;8.43;;;1.70;;
9324;SDS011;4701;51.566;6.776;2023-04-25T09:13:43;6.13;;;1.63;;
9324;SDS011;4701;51.566;6.776;2023-04-25T09:17:09;5.77;;;1.90;;
9324;SDS011;4701;51.566;6.776;2023-04-25T09:20:13;7.10;;;1.73;;
9324;SDS011;4701;51.566;6.776;2023-04-25T09:23:17;5.57;;;1.70;;
9324;SDS011;4701;51.566;6.776;2023-04-25T09:26:21;6.40;;;1.77;;
9324;SDS011;4701;51.566;6.776;2023-04-25T09:29:28;5.73;;;1.93;;
9324;SDS011;4701;51.566;6.776;2023-04-25T09:32:31;4.90;;;1.70;;
9324;SDS011;4701;51.566;6.776;2023-04-25T09:35:37;5.20;;;1.57;;
9324;SDS011;4701;51.566;6.776;2023-04-25T09:38:44;7.40;;;1.63;;
9324;SDS011;4701;51.566;6.776;2023-04-25T09:41:53;5.67;;;1.80;;
9324;SDS011;4701;51.566;6.776;2023-04-25T09:44:55;4.13;;;1.70;;
9324;SDS011;4701;51.566;6.776;2023-04-25T09:47:59;7.13;;;2.03;;
9324;SDS011;4701;51.566;6.776;2023-04-25T09:51:07;7.47;;;2.20;;
9324;SDS011;4701;51.566;6.776;2023-04-25T09:54:12;5.80;;;1.87;;
9324;SDS011;4701;51.566;6.776;2023-04-25T09:57:19;4.93;;;1.70;;
9324;SDS011;4701;51.566;6.776;2023-04-25T10:00:23;6.50;;;1.50;;
9324;SDS011;4701;51.566;6.776;2023-04-25T10:03:26;7.37;;;1.87;;
9324;SDS011;4701;51.566;6.776;2023-04-25T10:06:49;6.17;;;2.10;;
9324;SDS011;4701;51.566;6.776;2023-04-25T10:09:55;8.53;;;2.03;;
9324;SDS011;4701;51.566;6.776;2023-04-25T10:13:03;4.50;;;1.30;;
9324;SDS011;4701;51.566;6.776;2023-04-25T10:16:06;4.03;;;1.50;;
9324;SDS011;4701;51.566;6.776;2023-04-25T10:19:09;6.67;;;1.80;;
9324;SDS011;4701;51.566;6.776;2023-04-25T10:22:11;9.50;;;1.83;;
9324;SDS011;4701;51.566;6.776;2023-04-25T10:25:19;4.07;;;1.30;;
9324;SDS011;4701;51.566;6.776;2023-04-25T10:28:21;2.83;;;1.40;;
9324;SDS011;4701;51.566;6.776;2023-04-25T10:31:23;5.33;;;1.60;;
9324;SDS011;4701;51.566;6.776;2023-04-25T10:34:37;4.20;;;1.30;;
9324;SDS011;4701;51.566;6.776;2023-04-25T10:41:17;1.73;;;0.90;;
9324;SDS011;4701;51.566;6.776;2023-04-25T10:44:20;6.10;;;1.70;;
9324;SDS011;4701;51.566;6.776;2023-04-25T10:47:24;5.03;;;1.53;;
9324;SDS011;4701;51.566;6.776;2023-04-25T10:50:37;4.53;;;1.50;;
9324;SDS011;4701;51.566;6.776;2023-04-25T10:53:39;4.70;;;1.47;;
9324;SDS011;4701;51.566;6.776;2023-04-25T10:56:42;3.10;;;1.50;;
9324;SDS011;4701;51.566;6.776;2023-04-25T10:59:44;8.00;;;1.70;;
9324;SDS011;4701;51.566;6.776;2023-04-25T11:02:47;2.90;;;1.70;;
9324;SDS011;4701;51.566;6.776;2023-04-25T11:05:52;3.17;;;1.30;;
9324;SDS011;4701;51.566;6.776;2023-04-25T11:08:54;4.20;;;1.50;;
9324;SDS011;4701;51.566;6.776;2023-04-25T11:11:58;3.50;;;1.13;;
9324;SDS011;4701;51.566;6.776;2023-04-25T11:15:01;4.00;;;1.30;;
9324;SDS011;4701;51.566;6.776;2023-04-25T11:18:04;3.57;;;1.23;;
9324;SDS011;4701;51.566;6.776;2023-04-25T11:21:06;4.70;;;1.40;;
9324;SDS011;4701;51.566;6.776;2023-04-25T11:24:08;4.10;;;1.30;;
9324;SDS011;4701;51.566;6.776;2023-04-25T11:27:11;3.53;;;1.37;;
9324;SDS011;4701;51.566;6.776;2023-04-25T11:30:14;5.93;;;1.70;;
9324;SDS011;4701;51.566;6.776;2023-04-25T11:33:16;5.60;;;1.40;;
9324;SDS011;4701;51.566;6.776;2023-04-25T11:36:18;3.57;;;1.50;;
9324;SDS011;4701;51.566;6.776;2023-04-25T11:39:20;6.37;;;1.73;;
9324;SDS011;4701;51.566;6.776;2023-04-25T11:42:23;5.13;;;1.70;;
9324;SDS011;4701;51.566;6.776;2023-04-25T11:45:25;4.70;;;1.53;;
9324;SDS011;4701;51.566;6.776;2023-04-25T11:48:36;5.70;;;1.80;;
9324;SDS011;4701;51.566;6.776;2023-04-25T11:51:38;3.53;;;1.40;;
9324;SDS011;4701;51.566;6.776;2023-04-25T11:54:40;6.27;;;1.63;;
9324;SDS011;4701;51.566;6.776;2023-04-25T11:57:44;4.33;;;1.40;;
9324;SDS011;4701;51.566;6.776;2023-04-25T12:00:50;2.80;;;1.20;;
9324;SDS011;4701;51.566;6.776;2023-04-25T12:03:52;3.33;;;1.27;;
9324;SDS011;4701;51.566;6.776;2023-04-25T12:06:54;2.53;;;1.13;;
9324;SDS011;4701;51.566;6.776;2023-04-25T12:09:56;6.03;;;1.47;;
9324;SDS011;4701;51.566;6.776;2023-04-25T12:12:59;3.53;;;1.30;;
9324;SDS011;4701;51.566;6.776;2023-04-25T12:16:01;3.53;;;1.50;;
9324;SDS011;4701;51.566;6.776;2023-04-25T12:19:03;4.43;;;1.40;;
9324;SDS011;4701;51.566;6.776;2023-04-25T12:22:18;2.20;;;1.10;;
9324;SDS011;4701;51.566;6.776;2023-04-25T12:25:37;4.70;;;1.50;;
9324;SDS011;4701;51.566;6.776;2023-04-25T12:28:44;3.97;;;1.47;;
9324;SDS011;4701;51.566;6.776;2023-04-25T12:31:48;3.77;;;1.53;;
9324;SDS011;4701;51.566;6.776;2023-04-25T12:34:51;6.93;;;1.50;;
9324;SDS011;4701;51.566;6.776;2023-04-25T12:37:53;4.43;;;1.30;;
9324;SDS011;4701;51.566;6.776;2023-04-25T12:40:55;3.70;;;1.80;;
9324;SDS011;4701;51.566;6.776;2023-04-25T12:43:59;5.87;;;1.30;;
9324;SDS011;4701;51.566;6.776;2023-04-25T12:47:00;7.43;;;1.70;;
9324;SDS011;4701;51.566;6.776;2023-04-25T12:50:03;4.87;;;1.50;;
9324;SDS011;4701;51.566;6.776;2023-04-25T12:53:05;3.27;;;1.30;;
9324;SDS011;4701;51.566;6.776;2023-04-25T12:56:07;4.47;;;1.33;;
9324;SDS011;4701;51.566;6.776;2023-04-25T12:59:10;5.10;;;1.30;;
9324;SDS011;4701;51.566;6.776;2023-04-25T13:02:12;6.40;;;1.43;;
9324;SDS011;4701;51.566;6.776;2023-04-25T13:05:14;2.20;;;1.33;;
9324;SDS011;4701;51.566;6.776;2023-04-25T13:08:16;2.67;;;1.30;;
9324;SDS011;4701;51.566;6.776;2023-04-25T13:11:18;5.40;;;1.50;;
9324;SDS011;4701;51.566;6.776;2023-04-25T13:14:21;4.60;;;1.50;;
9324;SDS011;4701;51.566;6.776;2023-04-25T13:17:23;4.20;;;1.47;;
9324;SDS011;4701;51.566;6.776;2023-04-25T13:20:25;3.33;;;1.13;;
9324;SDS011;4701;51.566;6.776;2023-04-25T13:23:27;7.83;;;1.20;;
9324;SDS011;4701;51.566;6.776;2023-04-25T13:26:30;4.03;;;1.30;;
9324;SDS011;4701;51.566;6.776;2023-04-25T13:29:33;5.77;;;1.40;;
9324;SDS011;4701;51.566;6.776;2023-04-25T13:32:36;3.40;;;1.37;;
9324;SDS011;4701;51.566;6.776;2023-04-25T13:35:38;5.43;;;1.40;;
9324;SDS011;4701;51.566;6.776;2023-04-25T13:38:40;2.03;;;0.90;;
9324;SDS011;4701;51.566;6.776;2023-04-25T13:41:44;2.13;;;1.07;;
9324;SDS011;4701;51.566;6.776;2023-04-25T13:44:47;3.33;;;1.00;;
9324;SDS011;4701;51.566;6.776;2023-04-25T13:47:49;2.30;;;1.10;;
9324;SDS011;4701;51.566;6.776;2023-04-25T13:50:51;2.10;;;0.87;;
9324;SDS011;4701;51.566;6.776;2023-04-25T13:53:52;1.97;;;0.90;;
9324;SDS011;4701;51.566;6.776;2023-04-25T13:56:54;2.03;;;1.00;;
9324;SDS011;4701;51.566;6.776;2023-04-25T14:00:00;3.03;;;0.80;;
9324;SDS011;4701;51.566;6.776;2023-04-25T14:03:06;2.70;;;1.13;;
9324;SDS011;4701;51.566;6.776;2023-04-25T14:06:11;3.00;;;1.07;;
9324;SDS011;4701;51.566;6.776;2023-04-25T14:09:13;1.77;;;0.83;;
9324;SDS011;4701;51.566;6.776;2023-04-25T14:12:15;3.87;;;1.17;;
9324;SDS011;4701;51.566;6.776;2023-04-25T14:15:19;4.20;;;1.00;;
9324;SDS011;4701;51.566;6.776;2023-04-25T14:18:21;2.20;;;1.00;;
9324;SDS011;4701;51.566;6.776;2023-04-25T14:21:23;2.90;;;1.20;;
9324;SDS011;4701;51.566;6.776;2023-04-25T14:24:25;4.13;;;1.10;;
9324;SDS011;4701;51.566;6.776;2023-04-25T14:27:27;8.13;;;1.57;;
9324;SDS011;4701;51.566;6.776;2023-04-25T14:30:30;4.90;;;1.43;;
9324;SDS011;4701;51.566;6.776;2023-04-25T14:33:32;4.13;;;1.37;;
9324;SDS011;4701;51.566;6.776;2023-04-25T14:36:35;3.43;;;1.20;;
9324;SDS011;4701;51.566;6.776;2023-04-25T14:39:37;4.30;;;1.67;;
9324;SDS011;4701;51.566;6.776;2023-04-25T14:42:38;6.87;;;1.30;;
9324;SDS011;4701;51.566;6.776;2023-04-25T14:45:42;3.90;;;1.47;;
9324;SDS011;4701;51.566;6.776;2023-04-25T14:48:44;6.47;;;1.40;;
9324;SDS011;4701;51.566;6.776;2023-04-25T14:51:47;3.53;;;1.20;;
9324;SDS011;4701;51.566;6.776;2023-04-25T14:54:50;5.83;;;1.37;;
9324;SDS011;4701;51.566;6.776;2023-04-25T14:57:52;2.83;;;1.37;;
9324;SDS011;4701;51.566;6.776;2023-04-25T15:00:56;3.33;;;1.60;;
9324;SDS011;4701;51.566;6.776;2023-04-25T15:03:58;5.53;;;2.00;;
9324;SDS011;4701;51.566;6.776;2023-04-25T15:07:00;2.90;;;1.00;;
9324;SDS011;4701;51.566;6.776;2023-04-25T15:10:03;2.23;;;1.43;;
9324;SDS011;4701;51.566;6.776;2023-04-25T15:13:05;4.17;;;1.33;;
9324;SDS011;4701;51.566;6.776;2023-04-25T15:16:09;3.40;;;1.20;;
9324;SDS011;4701;51.566;6.776;2023-04-25T15:19:11;3.93;;;1.20;;
9324;SDS011;4701;51.566;6.776;2023-04-25T15:22:13;2.77;;;1.83;;
9324;SDS011;4701;51.566;6.776;2023-04-25T15:25:15;2.30;;;0.90;;
9324;SDS011;4701;51.566;6.776;2023-04-25T15:28:18;3.80;;;1.07;;
9324;SDS011;4701;51.566;6.776;2023-04-25T15:31:22;3.63;;;1.47;;
9324;SDS011;4701;51.566;6.776;2023-04-25T15:34:24;4.30;;;1.40;;
9324;SDS011;4701;51.566;6.776;2023-04-25T15:37:26;2.90;;;1.00;;
9324;SDS011;4701;51.566;6.776;2023-04-25T15:40:28;2.87;;;0.90;;
9324;SDS011;4701;51.566;6.776;2023-04-25T15:43:30;2.07;;;1.13;;
9324;SDS011;4701;51.566;6.776;2023-04-25T15:46:33;2.37;;;1.10;;
9324;SDS011;4701;51.566;6.776;2023-04-25T15:49:35;1.47;;;0.70;;
9324;SDS011;4701;51.566;6.776;2023-04-25T15:52:37;2.47;;;0.80;;
9324;SDS011;4701;51.566;6.776;2023-04-25T15:55:39;1.90;;;0.97;;
9324;SDS011;4701;51.566;6.776;2023-04-25T15:58:41;5.03;;;1.30;;
9324;SDS011;4701;51.566;6.776;2023-04-25T16:01:44;5.20;;;1.23;;
9324;SDS011;4701;51.566;6.776;2023-04-25T16:04:46;6.67;;;1.13;;
9324;SDS011;4701;51.566;6.776;2023-04-25T16:07:48;3.17;;;1.10;;
9324;SDS011;4701;51.566;6.776;2023-04-25T16:10:52;3.77;;;1.10;;
9324;SDS011;4701;51.566;6.776;2023-04-25T16:13:54;4.20;;;1.03;;
9324;SDS011;4701;51.566;6.776;2023-04-25T16:16:58;2.63;;;1.20;;
9324;SDS011;4701;51.566;6.776;2023-04-25T16:19:59;3.07;;;1.17;;
9324;SDS011;4701;51.566;6.776;2023-04-25T16:23:05;5.60;;;1.20;;
9324;SDS011;4701;51.566;6.776;2023-04-25T16:26:07;2.93;;;1.10;;
9324;SDS011;4701;51.566;6.776;2023-04-25T16:29:09;4.33;;;1.27;;
9324;SDS011;4701;51.566;6.776;2023-04-25T16:32:15;3.23;;;1.30;;
9324;SDS011;4701;51.566;6.776;2023-04-25T16:35:17;2.07;;;1.00;;
9324;SDS011;4701;51.566;6.776;2023-04-25T16:38:19;3.37;;;1.27;;
9324;SDS011;4701;51.566;6.776;2023-04-25T16:41:21;3.03;;;1.23;;
9324;SDS011;4701;51.566;6.776;2023-04-25T16:44:24;5.20;;;1.40;;
9324;SDS011;4701;51.566;6.776;2023-04-25T16:47:27;3.60;;;1.17;;
9324;SDS011;4701;51.566;6.776;2023-04-25T16:50:29;3.17;;;1.10;;
9324;SDS011;4701;51.566;6.776;2023-04-25T16:53:31;2.70;;;1.37;;
9324;SDS011;4701;51.566;6.776;2023-04-25T16:56:32;3.27;;;1.10;;
9324;SDS011;4701;51.566;6.776;2023-04-25T16:59:34;3.70;;;1.83;;
9324;SDS011;4701;51.566;6.776;2023-04-25T17:02:38;2.50;;;1.40;;
9324;SDS011;4701;51.566;6.776;2023-04-25T17:05:39;3.73;;;1.50;;
9324;SDS011;4701;51.566;6.776;2023-04-25T17:08:41;5.27;;;1.20;;
9324;SDS011;4701;51.566;6.776;2023-04-25T17:11:43;1.87;;;1.17;;
9324;SDS011;4701;51.566;6.776;2023-04-25T17:14:45;4.27;;;1.20;;
9324;SDS011;4701;51.566;6.776;2023-04-25T17:17:48;3.67;;;1.33;;
9324;SDS011;4701;51.566;6.776;2023-04-25T17:20:51;3.97;;;1.20;;
9324;SDS011;4701;51.566;6.776;2023-04-25T17:23:52;3.73;;;1.20;;
9324;SDS011;4701;51.566;6.776;2023-04-25T17:26:54;5.03;;;1.30;;
9324;SDS011;4701;51.566;6.776;2023-04-25T17:29:56;2.87;;;1.10;;
9324;SDS011;4701;51.566;6.776;2023-04-25T17:32:59;3.03;;;1.30;;
9324;SDS011;4701;51.566;6.776;2023-04-25T17:36:02;4.70;;;1.20;;
9324;SDS011;4701;51.566;6.776;2023-04-25T17:39:04;4.10;;;1.50;;
9324;SDS011;4701;51.566;6.776;2023-04-25T17:42:07;4.37;;;1.40;;
9324;SDS011;4701;51.566;6.776;2023-04-25T17:45:10;4.93;;;1.70;;
9324;SDS011;4701;51.566;6.776;2023-04-25T17:48:14;5.23;;;1.57;;
9324;SDS011;4701;51.566;6.776;2023-04-25T17:51:16;4.57;;;1.43;;
9324;SDS011;4701;51.566;6.776;2023-04-25T17:54:18;6.60;;;1.70;;
9324;SDS011;4701;51.566;6.776;2023-04-25T17:57:21;5.77;;;1.63;;
9324;SDS011;4701;51.566;6.776;2023-04-25T18:00:24;4.93;;;1.57;;
9324;SDS011;4701;51.566;6.776;2023-04-25T18:03:27;2.13;;;1.20;;
9324;SDS011;4701;51.566;6.776;2023-04-25T18:06:29;5.70;;;1.40;;
9324;SDS011;4701;51.566;6.776;2023-04-25T18:09:32;6.40;;;1.73;;
9324;SDS011;4701;51.566;6.776;2023-04-25T18:12:34;5.83;;;1.40;;
9324;SDS011;4701;51.566;6.776;2023-04-25T18:15:36;4.10;;;1.50;;
9324;SDS011;4701;51.566;6.776;2023-04-25T18:18:39;5.50;;;1.53;;
9324;SDS011;4701;51.566;6.776;2023-04-25T18:21:43;5.67;;;1.73;;
9324;SDS011;4701;51.566;6.776;2023-04-25T18:24:45;6.20;;;1.90;;
9324;SDS011;4701;51.566;6.776;2023-04-25T18:27:47;3.93;;;1.20;;
9324;SDS011;4701;51.566;6.776;2023-04-25T18:30:49;4.43;;;1.40;;
9324;SDS011;4701;51.566;6.776;2023-04-25T18:33:52;4.70;;;1.40;;
9324;SDS011;4701;51.566;6.776;2023-04-25T18:36:54;2.80;;;1.43;;
9324;SDS011;4701;51.566;6.776;2023-04-25T18:39:57;4.30;;;1.50;;
9324;SDS011;4701;51.566;6.776;2023-04-25T18:42:58;5.37;;;1.50;;
9324;SDS011;4701;51.566;6.776;2023-04-25T18:46:00;9.80;;;1.80;;
9324;SDS011;4701;51.566;6.776;2023-04-25T18:49:03;3.83;;;1.77;;
9324;SDS011;4701;51.566;6.776;2023-04-25T18:52:05;5.27;;;2.53;;
9324;SDS011;4701;51.566;6.776;2023-04-25T18:55:09;5.10;;;1.70;;
9324;SDS011;4701;51.566;6.776;2023-04-25T18:58:11;5.10;;;1.60;;
9324;SDS011;4701;51.566;6.776;2023-04-25T19:01:13;3.77;;;1.60;;
9324;SDS011;4701;51.566;6.776;2023-04-25T19:04:16;5.07;;;1.80;;
9324;SDS011;4701;51.566;6.776;2023-04-25T19:07:18;5.60;;;1.57;;
9324;SDS011;4701;51.566;6.776;2023-04-25T19:10:21;3.00;;;1.40;;
9324;SDS011;4701;51.566;6.776;2023-04-25T19:13:23;4.53;;;1.30;;
9324;SDS011;4701;51.566;6.776;2023-04-25T19:16:25;4.57;;;1.40;;
9324;SDS011;4701;51.566;6.776;2023-04-25T19:19:28;7.70;;;1.67;;
9324;SDS011;4701;51.566;6.776;2023-04-25T19:22:30;3.47;;;1.53;;
9324;SDS011;4701;51.566;6.776;2023-04-25T19:28:34;3.97;;;1.70;;
9324;SDS011;4701;51.566;6.776;2023-04-25T19:31:36;3.17;;;1.20;;
9324;SDS011;4701;51.566;6.776;2023-04-25T19:34:40;6.37;;;2.17;;
9324;SDS011;4701;51.566;6.776;2023-04-25T19:37:42;4.63;;;1.27;;
9324;SDS011;4701;51.566;6.776;2023-04-25T19:40:46;6.67;;;1.60;;
9324;SDS011;4701;51.566;6.776;2023-04-25T19:43:48;6.40;;;2.00;;
9324;SDS011;4701;51.566;6.776;2023-04-25T19:46:49;4.13;;;1.83;;
9324;SDS011;4701;51.566;6.776;2023-04-25T19:49:53;6.50;;;2.10;;
9324;SDS011;4701;51.566;6.776;2023-04-25T19:52:54;4.70;;;1.90;;
9324;SDS011;4701;51.566;6.776;2023-04-25T19:55:56;4.93;;;2.80;;
9324;SDS011;4701;51.566;6.776;2023-04-25T19:58:58;3.47;;;2.03;;
9324;SDS011;4701;51.566;6.776;2023-04-25T20:02:00;3.37;;;1.67;;
9324;SDS011;4701;51.566;6.776;2023-04-25T20:05:05;4.80;;;1.77;;
9324;SDS011;4701;51.566;6.776;2023-04-25T20:08:08;3.30;;;1.80;;
9324;SDS011;4701;51.566;6.776;2023-04-25T20:11:09;4.53;;;1.83;;
9324;SDS011;4701;51.566;6.776;2023-04-25T20:14:12;6.20;;;1.90;;
9324;SDS011;4701;51.566;6.776;2023-04-25T20:17:14;5.13;;;2.17;;
9324;SDS011;4701;51.566;6.776;2023-04-25T20:20:17;4.87;;;2.17;;
9324;SDS011;4701;51.566;6.776;2023-04-25T20:23:19;4.03;;;2.07;;
9324;SDS011;4701;51.566;6.776;2023-04-25T20:26:21;5.20;;;2.50;;
9324;SDS011;4701;51.566;6.776;2023-04-25T20:29:23;7.77;;;3.20;;
9324;SDS011;4701;51.566;6.776;2023-04-25T20:32:26;5.73;;;2.63;;
9324;SDS011;4701;51.566;6.776;2023-04-25T20:35:29;5.40;;;2.03;;
9324;SDS011;4701;51.566;6.776;2023-04-25T20:38:32;5.53;;;2.20;;
9324;SDS011;4701;51.566;6.776;2023-04-25T20:41:33;3.07;;;2.17;;
9324;SDS011;4701;51.566;6.776;2023-04-25T20:44:36;4.73;;;2.13;;
9324;SDS011;4701;51.566;6.776;2023-04-25T20:47:40;6.57;;;2.63;;
9324;SDS011;4701;51.566;6.776;2023-04-25T20:50:43;3.50;;;1.90;;
9324;SDS011;4701;51.566;6.776;2023-04-25T20:53:45;2.70;;;1.93;;
9324;SDS011;4701;51.566;6.776;2023-04-25T20:56:47;4.57;;;1.77;;
9324;SDS011;4701;51.566;6.776;2023-04-25T20:59:49;5.17;;;2.20;;
